createdAt,value
2023-06-09T00:02:19.521Z,7.80
2023-06-09T00:04:48.050Z,7.93
2023-06-09T00:07:17.349Z,8.13
2023-06-09T00:09:45.589Z,7.73
2023-06-09T00:12:15.346Z,8.20
2023-06-09T00:14:43.935Z,7.80
2023-06-09T00:17:12.201Z,8.03
2023-06-09T00:19:43.276Z,8.40
2023-06-09T00:22:15.255Z,8.13
2023-06-09T00:24:45.205Z,9.23
2023-06-09T00:27:14.738Z,8.50
2023-06-09T00:29:42.858Z,8.53
2023-06-09T00:32:12.817Z,9.00
2023-06-09T00:34:41.269Z,9.00
2023-06-09T00:37:09.374Z,8.43
2023-06-09T00:39:37.475Z,9.10
2023-06-09T00:42:06.479Z,8.87
2023-06-09T00:44:35.986Z,8.97
2023-06-09T00:47:05.832Z,8.70
2023-06-09T00:49:34.035Z,8.30
2023-06-09T00:52:02.126Z,8.70
2023-06-09T00:54:30.379Z,8.60
2023-06-09T00:57:08.423Z,7.93
2023-06-09T00:59:38.032Z,8.33
2023-06-09T01:02:06.710Z,9.83
2023-06-09T01:04:35.523Z,9.10
2023-06-09T01:07:09.920Z,9.00
2023-06-09T01:09:41.309Z,9.00
2023-06-09T01:12:12.539Z,8.93
2023-06-09T01:14:46.864Z,8.70
2023-06-09T01:17:19.624Z,9.77
2023-06-09T01:19:49.123Z,9.33
2023-06-09T01:22:25.359Z,9.47
2023-06-09T01:24:59.340Z,9.70
2023-06-09T01:27:30.264Z,8.83
2023-06-09T01:29:59.997Z,8.87
2023-06-09T01:32:28.270Z,8.50
2023-06-09T01:34:56.505Z,9.90
2023-06-09T01:37:24.596Z,9.30
2023-06-09T01:39:52.731Z,8.90
2023-06-09T01:42:20.884Z,9.60
2023-06-09T01:44:50.420Z,8.90
2023-06-09T01:47:20.757Z,9.00
2023-06-09T01:49:54.663Z,9.50
2023-06-09T01:52:24.214Z,9.07
2023-06-09T01:54:55.770Z,9.30
2023-06-09T01:57:29.862Z,9.40
2023-06-09T02:00:06.265Z,9.07
2023-06-09T02:02:35.522Z,9.73
2023-06-09T02:05:05.422Z,10.03
2023-06-09T02:07:33.603Z,9.33
2023-06-09T02:10:01.763Z,9.13
2023-06-09T02:12:33.508Z,8.80
2023-06-09T02:15:03.360Z,9.10
2023-06-09T02:17:33.986Z,8.80
2023-06-09T02:20:02.179Z,8.70
2023-06-09T02:22:30.477Z,9.00
2023-06-09T02:24:59.295Z,8.33
2023-06-09T02:27:27.390Z,9.30
2023-06-09T02:29:55.473Z,8.63
2023-06-09T02:32:24.933Z,8.60
2023-06-09T02:34:56.070Z,9.20
2023-06-09T02:37:24.208Z,8.57
2023-06-09T02:39:52.274Z,9.50
2023-06-09T02:42:20.427Z,9.53
2023-06-09T02:44:49.896Z,8.70
2023-06-09T02:47:18.057Z,9.93
2023-06-09T02:49:47.565Z,10.20
2023-06-09T02:52:15.648Z,10.87
2023-06-09T02:54:44.735Z,8.90
2023-06-09T02:57:13.605Z,10.13
2023-06-09T02:59:41.800Z,9.93
2023-06-09T03:02:09.901Z,9.87
2023-06-09T03:04:39.111Z,9.27
2023-06-09T03:07:10.549Z,9.63
2023-06-09T03:09:38.708Z,10.87
2023-06-09T03:12:07.679Z,10.23
2023-06-09T03:14:36.270Z,9.80
2023-06-09T03:17:05.695Z,10.80
2023-06-09T03:19:33.879Z,10.40
2023-06-09T03:22:04.436Z,10.20
2023-06-09T03:24:34.646Z,10.40
2023-06-09T03:27:08.046Z,10.57
2023-06-09T03:29:36.187Z,11.43
2023-06-09T03:32:08.704Z,11.67
2023-06-09T03:34:36.884Z,10.50
2023-06-09T03:37:10.423Z,11.00
2023-06-09T03:39:39.924Z,11.50
2023-06-09T03:42:08.325Z,11.10
2023-06-09T03:44:36.449Z,11.30
2023-06-09T03:47:04.845Z,10.30
2023-06-09T03:49:38.011Z,10.77
2023-06-09T03:52:07.615Z,10.43
2023-06-09T03:54:35.921Z,11.43
2023-06-09T03:57:06.069Z,11.53
2023-06-09T03:59:34.174Z,10.83
2023-06-09T04:02:02.395Z,10.83
2023-06-09T04:04:30.655Z,11.00
2023-06-09T04:07:00.366Z,11.63
2023-06-09T04:09:28.674Z,11.73
2023-06-09T04:11:56.831Z,11.10
2023-06-09T04:14:26.300Z,11.30
2023-06-09T04:16:54.387Z,11.90
2023-06-09T04:19:25.302Z,12.07
2023-06-09T04:21:53.400Z,11.93
2023-06-09T04:24:21.945Z,11.83
2023-06-09T04:26:50.106Z,12.47
2023-06-09T04:29:19.008Z,11.10
2023-06-09T04:31:49.630Z,12.00
2023-06-09T04:34:19.005Z,11.37
2023-06-09T04:36:47.222Z,11.63
2023-06-09T04:39:15.353Z,11.30
2023-06-09T04:41:43.707Z,10.87
2023-06-09T04:44:11.903Z,11.50
2023-06-09T04:46:40.146Z,12.60
2023-06-09T04:49:11.115Z,11.23
2023-06-09T04:51:43.111Z,12.23
2023-06-09T04:54:12.236Z,13.70
2023-06-09T04:56:40.846Z,11.70
2023-06-09T04:59:08.978Z,11.87
2023-06-09T05:01:38.415Z,11.70
2023-06-09T05:04:07.327Z,12.60
2023-06-09T05:06:37.650Z,12.60
2023-06-09T05:09:06.832Z,13.23
2023-06-09T05:11:35.003Z,12.97
2023-06-09T05:14:03.183Z,12.70
2023-06-09T05:16:31.297Z,13.30
2023-06-09T05:18:59.527Z,12.87
2023-06-09T05:21:27.875Z,12.87
2023-06-09T05:23:57.408Z,13.30
2023-06-09T05:26:26.480Z,12.93
2023-06-09T05:28:56.218Z,12.53
2023-06-09T05:31:24.949Z,12.93
2023-06-09T05:33:53.101Z,12.40
2023-06-09T05:36:21.249Z,12.60
2023-06-09T05:38:49.390Z,12.00
2023-06-09T05:41:18.883Z,11.30
2023-06-09T05:43:47.000Z,11.97
2023-06-09T05:46:15.151Z,11.10
2023-06-09T05:48:43.277Z,10.40
2023-06-09T05:51:11.579Z,11.50
2023-06-09T05:53:39.891Z,10.10
2023-06-09T05:56:07.958Z,8.97
2023-06-09T05:58:37.431Z,11.80
2023-06-09T06:01:05.606Z,11.73
2023-06-09T06:03:34.675Z,10.67
2023-06-09T06:06:02.871Z,9.40
2023-06-09T06:08:30.986Z,8.00
2023-06-09T06:10:59.116Z,7.73
2023-06-09T06:13:27.239Z,7.50
2023-06-09T06:15:56.782Z,8.63
2023-06-09T06:18:24.920Z,8.73
2023-06-09T06:20:53.013Z,7.97
2023-06-09T06:23:21.228Z,7.43
2023-06-09T06:25:49.375Z,8.00
2023-06-09T06:28:17.470Z,7.97
2023-06-09T06:30:45.781Z,7.90
2023-06-09T06:33:16.510Z,7.40
2023-06-09T06:35:44.636Z,8.10
2023-06-09T06:38:12.722Z,7.43
2023-06-09T06:40:40.847Z,7.20
2023-06-09T06:43:09.044Z,8.43
2023-06-09T06:45:37.397Z,7.90
2023-06-09T06:48:05.819Z,7.80
2023-06-09T06:50:35.378Z,7.27
2023-06-09T06:53:03.552Z,7.23
2023-06-09T06:55:34.064Z,7.13
2023-06-09T06:58:04.394Z,6.57
2023-06-09T07:00:32.577Z,7.20
2023-06-09T07:03:00.752Z,7.27
2023-06-09T07:05:28.889Z,6.43
2023-06-09T07:07:58.383Z,7.00
2023-06-09T07:10:26.515Z,7.60
2023-06-09T07:12:54.586Z,7.13
2023-06-09T07:15:22.679Z,7.13
2023-06-09T07:17:51.130Z,6.57
2023-06-09T07:20:19.292Z,7.33
2023-06-09T07:22:51.778Z,6.70
2023-06-09T07:25:21.733Z,6.33
2023-06-09T07:27:49.819Z,6.77
2023-06-09T07:30:18.116Z,7.03
2023-06-09T07:32:46.246Z,7.00
2023-06-09T07:35:14.736Z,6.90
2023-06-09T07:37:43.600Z,6.87
2023-06-09T07:40:18.731Z,6.60
2023-06-09T07:42:50.684Z,7.67
2023-06-09T07:45:19.141Z,6.77
2023-06-09T07:47:47.357Z,7.23
2023-06-09T07:50:16.718Z,7.03
2023-06-09T07:52:44.908Z,6.90
2023-06-09T07:55:15.670Z,6.60
2023-06-09T07:57:51.737Z,6.27
2023-06-09T08:00:20.744Z,6.23
2023-06-09T08:02:51.779Z,6.80
2023-06-09T08:05:20.051Z,7.20
2023-06-09T08:07:48.187Z,7.57
2023-06-09T08:10:20.253Z,7.30
2023-06-09T08:12:48.336Z,6.70
2023-06-09T08:15:17.877Z,6.73
2023-06-09T08:17:46.036Z,6.53
2023-06-09T08:20:14.514Z,7.67
2023-06-09T08:22:42.621Z,7.03
2023-06-09T08:25:12.616Z,6.73
2023-06-09T08:27:40.828Z,6.63
2023-06-09T08:30:10.143Z,6.90
2023-06-09T08:32:41.572Z,6.93
2023-06-09T08:35:10.464Z,7.00
2023-06-09T08:37:39.686Z,7.10
2023-06-09T08:40:11.297Z,7.33
2023-06-09T08:42:40.160Z,6.67
2023-06-09T08:45:09.878Z,7.30
2023-06-09T08:47:41.071Z,6.60
2023-06-09T08:50:10.808Z,6.57
2023-06-09T08:52:39.121Z,6.83
2023-06-09T08:55:08.350Z,6.60
2023-06-09T08:57:38.978Z,6.73
2023-06-09T09:00:12.465Z,6.30
2023-06-09T09:02:44.426Z,7.33
2023-06-09T09:05:12.651Z,7.30
2023-06-09T09:07:41.516Z,6.80
2023-06-09T09:10:10.354Z,6.60
2023-06-09T09:12:49.204Z,7.43
2023-06-09T09:15:17.434Z,7.23
2023-06-09T09:17:48.400Z,7.03
2023-06-09T09:20:17.181Z,7.20
2023-06-09T09:22:49.229Z,6.77
2023-06-09T09:25:24.773Z,7.30
2023-06-09T09:28:03.316Z,6.70
2023-06-09T09:30:48.382Z,7.37
2023-06-09T09:33:21.698Z,7.10
2023-06-09T09:35:50.880Z,6.57
2023-06-09T09:38:22.106Z,6.00
2023-06-09T09:40:51.998Z,7.13
2023-06-09T09:43:20.532Z,7.00
2023-06-09T09:45:49.338Z,6.70
2023-06-09T09:48:21.055Z,6.90
2023-06-09T09:50:50.088Z,6.63
2023-06-09T09:53:18.293Z,6.83
2023-06-09T09:55:47.717Z,7.43
2023-06-09T09:58:17.076Z,7.27
2023-06-09T10:00:45.927Z,7.70
2023-06-09T10:03:16.782Z,7.67
2023-06-09T10:05:48.183Z,7.20
2023-06-09T10:08:19.929Z,6.20
2023-06-09T10:10:48.265Z,7.10
2023-06-09T10:13:16.848Z,7.40
2023-06-09T10:15:45.181Z,7.27
2023-06-09T10:18:13.781Z,7.27
2023-06-09T10:20:43.274Z,6.83
2023-06-09T10:23:12.843Z,7.20
2023-06-09T10:25:41.000Z,7.40
2023-06-09T10:28:09.861Z,7.70
2023-06-09T10:30:40.284Z,7.10
2023-06-09T10:33:15.883Z,7.33
2023-06-09T10:35:45.932Z,6.90
2023-06-09T10:38:27.099Z,7.70
2023-06-09T10:41:04.299Z,7.10
2023-06-09T10:43:40.517Z,7.70
2023-06-09T10:46:09.170Z,7.50
2023-06-09T10:48:45.437Z,7.20
2023-06-09T10:51:42.120Z,7.80
2023-06-09T10:54:26.907Z,7.83
2023-06-09T10:56:56.889Z,7.60
2023-06-09T11:00:01.784Z,7.70
2023-06-09T11:02:29.987Z,7.10
2023-06-09T11:04:59.190Z,7.90
2023-06-09T11:07:42.718Z,7.07
2023-06-09T11:10:39.790Z,7.93
2023-06-09T11:13:47.670Z,7.60
2023-06-09T11:16:15.871Z,7.77
2023-06-09T11:18:44.198Z,7.60
2023-06-09T11:21:21.398Z,7.80
2023-06-09T11:24:10.518Z,6.93
2023-06-09T11:26:40.102Z,7.80
2023-06-09T11:29:22.669Z,7.63
2023-06-09T11:31:53.794Z,7.90
2023-06-09T11:35:06.052Z,6.57
2023-06-09T11:37:34.219Z,7.30
2023-06-09T11:40:02.860Z,7.40
2023-06-09T11:42:33.250Z,7.07
2023-06-09T11:45:02.081Z,7.40
2023-06-09T11:47:32.225Z,6.83
2023-06-09T11:50:02.850Z,7.00
2023-06-09T11:52:30.965Z,7.10
2023-06-09T11:55:05.029Z,7.30
2023-06-09T11:57:34.591Z,7.70
2023-06-09T12:00:09.601Z,6.73
2023-06-09T12:02:37.899Z,7.13
2023-06-09T12:05:08.971Z,7.20
2023-06-09T12:07:37.092Z,7.37
2023-06-09T12:10:05.900Z,7.17
2023-06-09T12:12:43.714Z,7.33
2023-06-09T12:15:12.125Z,7.70
2023-06-09T12:17:40.462Z,8.33
2023-06-09T12:20:24.432Z,7.07
2023-06-09T12:22:52.552Z,6.97
2023-06-09T12:25:25.700Z,7.90
2023-06-09T12:27:55.414Z,7.67
2023-06-09T12:30:37.239Z,7.07
2023-06-09T12:33:09.846Z,7.63
2023-06-09T12:35:41.725Z,7.60
2023-06-09T12:38:16.596Z,6.70
2023-06-09T12:40:51.430Z,7.47
2023-06-09T12:43:21.603Z,7.03
2023-06-09T12:45:50.230Z,7.50
2023-06-09T12:48:18.489Z,7.50
2023-06-09T12:50:46.767Z,7.37
2023-06-09T12:53:15.360Z,7.10
2023-06-09T12:55:44.079Z,7.20
2023-06-09T12:58:12.602Z,6.87
2023-06-09T13:00:42.247Z,7.20
2023-06-09T13:03:11.376Z,7.07
2023-06-09T13:05:39.774Z,7.40
2023-06-09T13:08:07.854Z,7.63
2023-06-09T13:10:36.094Z,7.70
2023-06-09T13:13:04.244Z,6.90
2023-06-09T13:15:32.424Z,6.80
2023-06-09T13:18:39.434Z,7.37
2023-06-09T13:21:08.442Z,7.40
2023-06-09T13:23:36.566Z,7.50
2023-06-09T13:26:04.709Z,6.83
2023-06-09T13:28:32.865Z,7.90
2023-06-09T13:31:00.968Z,6.97
2023-06-09T13:33:29.126Z,7.37
2023-06-09T13:35:58.593Z,7.60
2023-06-09T13:38:26.716Z,7.33
2023-06-09T13:40:54.825Z,7.50
2023-06-09T13:43:22.924Z,7.00
2023-06-09T13:45:56.547Z,7.10
2023-06-09T13:48:24.770Z,7.43
2023-06-09T13:50:55.280Z,7.50
2023-06-09T13:53:24.933Z,7.30
2023-06-09T13:55:53.021Z,7.70
2023-06-09T13:58:26.805Z,6.50
2023-06-09T14:00:55.080Z,7.30
2023-06-09T14:03:23.914Z,7.03
2023-06-09T14:05:52.376Z,7.20
2023-06-09T14:08:20.942Z,7.13
2023-06-09T14:10:50.499Z,7.37
2023-06-09T14:13:18.606Z,7.93
2023-06-09T14:15:46.732Z,7.27
2023-06-09T14:18:14.855Z,6.97
2023-06-09T14:20:43.010Z,7.63
2023-06-09T14:23:12.527Z,7.50
2023-06-09T14:25:41.250Z,6.70
2023-06-09T14:28:10.695Z,7.40
2023-06-09T14:30:38.825Z,7.53
2023-06-09T14:33:06.971Z,6.87
2023-06-09T14:35:35.097Z,7.90
2023-06-09T14:38:03.982Z,7.50
2023-06-09T14:40:36.774Z,7.60
2023-06-09T14:43:06.935Z,7.03
2023-06-09T14:45:36.532Z,7.70
2023-06-09T14:48:07.967Z,7.40
2023-06-09T14:50:39.063Z,7.00
2023-06-09T14:53:07.363Z,6.77
2023-06-09T14:55:39.934Z,7.37
2023-06-09T14:58:08.683Z,7.70
2023-06-09T15:00:39.415Z,7.40
2023-06-09T15:05:37.608Z,7.80
2023-06-09T15:08:06.518Z,8.00
2023-06-09T15:10:35.171Z,7.10
2023-06-09T15:13:03.757Z,7.00
2023-06-09T15:15:32.205Z,7.33
2023-06-09T15:18:02.340Z,7.37
2023-06-09T15:20:30.999Z,7.60
2023-06-09T15:23:00.115Z,7.60
2023-06-09T15:25:30.369Z,6.80
2023-06-09T15:28:01.282Z,7.83
2023-06-09T15:30:31.533Z,7.33
2023-06-09T15:33:04.167Z,7.37
2023-06-09T15:35:35.226Z,8.00
2023-06-09T15:38:03.534Z,7.00
2023-06-09T15:40:31.998Z,6.87
2023-06-09T15:43:00.099Z,7.43
2023-06-09T15:45:28.258Z,7.63
2023-06-09T15:47:56.456Z,12.10
2023-06-09T15:50:25.956Z,9.57
2023-06-09T15:52:54.064Z,14.87
2023-06-09T15:55:22.242Z,14.17
2023-06-09T15:57:50.348Z,16.00
2023-06-09T16:00:19.520Z,15.80
2023-06-09T16:02:50.721Z,19.60
2023-06-09T16:05:18.887Z,21.07
2023-06-09T16:07:48.417Z,22.73
2023-06-09T16:10:16.639Z,20.33
2023-06-09T16:12:44.783Z,21.77
2023-06-09T16:15:13.082Z,24.20
2023-06-09T16:17:41.272Z,23.60
2023-06-09T16:20:09.975Z,23.87
2023-06-09T16:22:38.122Z,21.20
2023-06-09T16:25:08.258Z,21.70
2023-06-09T16:27:36.596Z,19.27
2023-06-09T16:30:04.922Z,18.87
2023-06-09T16:32:33.078Z,18.60
2023-06-09T16:35:01.191Z,18.30
2023-06-09T16:37:29.783Z,18.00
2023-06-09T16:39:57.949Z,17.80
2023-06-09T16:42:27.400Z,18.47
2023-06-09T16:44:55.448Z,17.97
2023-06-09T16:47:23.561Z,17.90
2023-06-09T16:49:52.488Z,17.23
2023-06-09T16:52:20.662Z,16.63
2023-06-09T16:54:48.796Z,18.17
2023-06-09T16:57:16.920Z,16.13
2023-06-09T16:59:46.447Z,16.57
2023-06-09T17:02:14.607Z,20.70
2023-06-09T17:04:44.843Z,24.60
2023-06-09T17:07:14.725Z,18.43
2023-06-09T17:09:42.839Z,18.60
2023-06-09T17:12:11.724Z,17.03
2023-06-09T17:14:39.838Z,21.77
2023-06-09T17:17:09.317Z,17.10
2023-06-09T17:19:37.578Z,18.03
2023-06-09T17:22:06.586Z,17.17
2023-06-09T17:24:34.698Z,17.67
2023-06-09T17:27:02.992Z,17.50
2023-06-09T17:29:31.084Z,17.50
2023-06-09T17:31:59.225Z,17.70
2023-06-09T17:34:28.748Z,15.63
2023-06-09T17:36:56.916Z,16.20
2023-06-09T17:39:25.035Z,16.83
2023-06-09T17:41:53.166Z,16.20
2023-06-09T17:44:21.249Z,16.00
2023-06-09T17:46:49.371Z,14.57
2023-06-09T17:49:17.782Z,16.23
2023-06-09T17:51:47.445Z,16.30
2023-06-09T17:54:15.658Z,15.50
2023-06-09T17:56:43.748Z,14.60
2023-06-09T17:59:12.666Z,15.50
2023-06-09T18:01:40.773Z,15.07
2023-06-09T18:04:08.972Z,15.10
2023-06-09T18:06:37.469Z,15.00
2023-06-09T18:09:06.931Z,14.30
2023-06-09T18:11:36.017Z,14.53
2023-06-09T18:14:05.085Z,14.13
2023-06-09T18:16:33.216Z,14.13
2023-06-09T18:19:02.779Z,14.70
2023-06-09T18:21:31.233Z,15.30
2023-06-09T18:23:59.384Z,14.17
2023-06-09T18:26:28.903Z,13.90
2023-06-09T18:28:57.043Z,14.70
2023-06-09T18:31:25.240Z,14.10
2023-06-09T18:33:53.769Z,13.90
2023-06-09T18:36:21.950Z,13.60
2023-06-09T18:38:50.111Z,13.80
2023-06-09T18:41:18.243Z,14.10
2023-06-09T18:43:47.755Z,14.50
2023-06-09T18:46:15.866Z,13.83
2023-06-09T18:48:55.992Z,13.53
2023-06-09T18:51:28.974Z,13.10
2023-06-09T18:53:57.092Z,14.87
2023-06-09T18:56:25.261Z,14.10
2023-06-09T18:58:54.734Z,13.80
2023-06-09T19:01:22.987Z,12.90
2023-06-09T19:03:51.213Z,13.50
2023-06-09T19:06:19.561Z,11.87
2023-06-09T19:08:47.946Z,13.17
2023-06-09T19:11:16.117Z,12.70
2023-06-09T19:13:44.218Z,13.23
2023-06-09T19:16:14.826Z,12.60
2023-06-09T19:18:43.023Z,13.50
2023-06-09T19:21:11.136Z,12.73
2023-06-09T19:23:39.268Z,13.10
2023-06-09T19:26:07.452Z,13.30
2023-06-09T19:28:35.648Z,12.60
2023-06-09T19:31:03.931Z,12.50
2023-06-09T19:33:33.557Z,12.67
2023-06-09T19:36:01.918Z,12.97
2023-06-09T19:38:30.074Z,12.07
2023-06-09T19:40:58.299Z,11.27
2023-06-09T19:43:26.433Z,12.40
2023-06-09T19:45:56.883Z,12.80
2023-06-09T19:48:25.012Z,12.97
2023-06-09T19:50:54.568Z,12.00
2023-06-09T19:53:22.708Z,12.50
2023-06-09T19:55:51.013Z,12.77
2023-06-09T19:58:19.141Z,12.70
2023-06-09T20:00:50.986Z,12.27
2023-06-09T20:03:19.181Z,11.77
2023-06-09T20:05:47.384Z,11.37
2023-06-09T20:08:16.875Z,11.87
2023-06-09T20:10:44.999Z,12.90
2023-06-09T20:13:13.112Z,12.27
2023-06-09T20:15:41.283Z,12.00
2023-06-09T20:18:14.914Z,12.50
2023-06-09T20:20:43.693Z,11.97
2023-06-09T20:23:19.320Z,11.70
2023-06-09T20:25:48.900Z,11.17
2023-06-09T20:28:17.023Z,12.10
2023-06-09T20:30:45.196Z,11.50
2023-06-09T20:33:14.981Z,11.67
2023-06-09T20:35:45.143Z,11.70
2023-06-09T20:38:13.629Z,11.23
2023-06-09T20:40:41.883Z,10.60
2023-06-09T20:43:13.562Z,11.27
2023-06-09T20:45:42.348Z,12.13
2023-06-09T20:48:10.499Z,11.70
2023-06-09T20:50:38.928Z,11.50
2023-06-09T20:53:07.005Z,10.70
2023-06-09T20:55:35.093Z,11.90
2023-06-09T20:58:06.695Z,10.63
2023-06-09T21:00:36.326Z,11.03
2023-06-09T21:03:06.335Z,10.77
2023-06-09T21:05:34.545Z,10.73
2023-06-09T21:08:02.671Z,11.47
2023-06-09T21:10:30.786Z,10.63
2023-06-09T21:12:58.972Z,11.00
2023-06-09T21:15:27.060Z,10.90
2023-06-09T21:17:56.626Z,11.17
2023-06-09T21:20:25.072Z,10.80
2023-06-09T21:22:53.261Z,10.40
2023-06-09T21:25:21.545Z,10.63
2023-06-09T21:27:49.678Z,11.00
2023-06-09T21:30:17.781Z,10.20
2023-06-09T21:32:45.969Z,10.53
2023-06-09T21:35:15.482Z,10.27
2023-06-09T21:37:43.590Z,10.47
2023-06-09T21:40:12.675Z,10.73
2023-06-09T21:42:40.835Z,9.83
2023-06-09T21:45:10.147Z,10.30
2023-06-09T21:47:38.442Z,9.20
2023-06-09T21:50:07.158Z,9.80
2023-06-09T21:52:37.495Z,9.10
2023-06-09T21:55:06.664Z,10.20
2023-06-09T21:57:34.872Z,8.87
2023-06-09T22:00:03.268Z,9.70
2023-06-09T22:02:31.376Z,9.10
2023-06-09T22:04:59.598Z,9.27
2023-06-09T22:07:27.684Z,9.50
2023-06-09T22:09:57.171Z,9.40
2023-06-09T22:12:33.849Z,9.30
2023-06-09T22:15:01.965Z,9.63
2023-06-09T22:17:30.229Z,10.10
2023-06-09T22:20:05.911Z,8.90
2023-06-09T22:22:34.042Z,9.20
2023-06-09T22:25:03.505Z,9.50
2023-06-09T22:27:33.181Z,9.10
2023-06-09T22:30:01.279Z,9.10
2023-06-09T22:32:29.525Z,9.17
2023-06-09T22:34:58.818Z,9.43
2023-06-09T22:37:28.912Z,9.40
2023-06-09T22:39:56.988Z,9.30
2023-06-09T22:42:26.551Z,9.23
2023-06-09T22:44:54.672Z,9.30
2023-06-09T22:47:22.920Z,9.83
2023-06-09T22:50:11.375Z,9.13
2023-06-09T22:52:42.397Z,9.60
2023-06-09T22:55:11.848Z,9.43
2023-06-09T22:57:41.573Z,9.60
2023-06-09T23:00:13.529Z,8.27
2023-06-09T23:02:42.231Z,8.90
2023-06-09T23:05:13.453Z,8.37
2023-06-09T23:07:41.972Z,9.40
2023-06-09T23:10:13.448Z,9.37
2023-06-09T23:12:43.221Z,9.10
2023-06-09T23:15:12.423Z,9.40
2023-06-09T23:17:41.319Z,8.47
2023-06-09T23:20:10.950Z,9.30
2023-06-09T23:22:41.048Z,9.23
2023-06-09T23:25:10.332Z,9.13
2023-06-09T23:27:38.690Z,9.00
2023-06-09T23:30:09.797Z,9.00
2023-06-09T23:32:38.020Z,8.60
2023-06-09T23:35:08.364Z,8.90
2023-06-09T23:37:45.033Z,9.90
2023-06-09T23:40:13.979Z,9.10
2023-06-09T23:42:45.133Z,8.70
2023-06-09T23:45:14.780Z,8.97
2023-06-09T23:47:43.008Z,8.33
2023-06-09T23:50:12.113Z,8.57
2023-06-09T23:52:40.256Z,8.93
2023-06-09T23:55:10.315Z,8.73
2023-06-09T23:57:38.655Z,8.70
